Terminal Aerodrome Forecast
Issued by NWS

Home | Current Version | Previous Version | Graphics & Text | Print | Product List | Glossary On
Versions: 1 2 3 4 5 6 7 8 9 10 11 12 13 14 15 16
000
FTUS43 KIWX 181120
TAFSBN
TAF
KSBN 181120Z 1812/1912 10010KT P6SM SCT025 OVC060
      TEMPO 1812/1815 BKN025
     FM182000 04009KT 6SM -RA OVC010
     FM190200 35010KT 4SM -SN BR OVC006
     FM190900 34011KT P6SM OVC012=

USA.gov is the U.S. government's official web portal to all federal, state and local government web resources and services.